Terminal Aerodrome Forecast
Issued by NWS

Home | Current Version | Previous Version | Text Only | Print | Product List | Glossary On
Versions: 1 2 3 4 5 6 7 8 9 10 11 12 13 14 15 16 17 18 19 20 21 22 23 24 25 26 27 28 29 30 31 32 33 34
000
FTAK31 PAFC 221722
TAFACD
TAF
PACD 221722Z 2218/2318 14008KT 6SM -RA BKN025 OVC030
     FM222000 07008KT P6SM -RA BKN040 OVC060
     FM230300 32020G30KT 5SM -RA SCT008 OVC010
     FM231200 30030G45KT 3SM RA SCT005 OVC010=

USA.gov is the U.S. government's official web portal to all federal, state and local government web resources and services.